ENRS/RET METAR and TAF weather

Enter ICAO airport designator
Station Type Date Time Source
ENRS METAR 2019/08/19 17:50 UTC NOAA

ENRS 191750Z 36010KT 9999 OVC005 13/12 Q0998


Station Type Date Time Source
ENRS Decoded METAR 2019/08/19 17:50 UTC NOAA

Rost Flyplass, Norway (ENRS) 67-31N 012-06E
Aug 19, 2019 - 01:50 PM EDT / 2019.08.19 1750 UTC
Wind: from the N (360 degrees) at 12 MPH (10 KT):0
Visibility: greater than 7 mile(s):0
Sky conditions: overcast
Temperature: 55 F (13 C)
Dew Point: 53 F (12 C)
Relative Humidity: 93%
Pressure (altimeter): 29.47 in. Hg (0998 hPa)
ob: ENRS 191750Z 36010KT 9999 OVC005 13/12 Q0998
cycle: 18

Station Type Date Time Source
ENRS TAF UTC NOAA

Error!

Example: see airport list